Time;durP1;ratioP1;P1;durP2;ratioP2;P2;SDS_P1;SDS_P2;PMS_P1;PMS_P2;Temp;Humidity;BMP_temperature;BMP_pressure;BME280_temperature;BME280_humidity;BME280_pressure;Samples;Min_cycle;Max_cycle;Signal;HPM_P1;HPM_P2
2022/12/01 00:01:44;;;;;;;55.42;24.83;;;;;;;-9.52;68.81;101630.91;4935612;29;20048;-69
2022/12/01 00:04:10;;;;;;;67.40;29.00;;;;;;;-9.58;68.65;101630.28;4935850;29;20054;-66
2022/12/01 00:06:36;;;;;;;64.00;27.23;;;;;;;-9.57;68.48;101637.91;4936008;29;20047;-69
2022/12/01 00:11:47;;;;;;;55.40;26.92;;;;;;;-9.75;68.85;101631.69;4934093;29;20040;-69
2022/12/01 00:14:13;;;;;;;60.20;26.15;;;;;;;-9.73;68.68;101634.22;4934106;29;20126;-69
2022/12/01 00:16:39;;;;;;;52.45;23.55;;;;;;;-9.70;68.59;101634.94;4934093;29;20052;-69
2022/12/01 00:19:05;;;;;;;52.45;23.73;;;;;;;-9.70;67.56;101639.25;4935644;29;20039;-70
2022/12/01 00:21:31;;;;;;;54.13;22.83;;;;;;;-9.69;68.31;101628.06;4918246;29;20419;-69
2022/12/01 00:23:57;;;;;;;52.50;23.75;;;;;;;-9.69;67.45;101634.03;4933870;29;20078;-69
2022/12/01 00:26:24;;;;;;;56.70;23.40;;;;;;;-9.70;67.51;101642.66;4935226;29;20052;-69
2022/12/01 00:28:51;;;;;;;48.60;22.30;;;;;;;-9.71;67.67;101638.38;4933971;29;20047;-68
2022/12/01 00:31:18;;;;;;;51.28;21.48;;;;;;;-9.76;67.66;101635.16;4935154;29;20094;-70
2022/12/01 00:33:43;;;;;;;51.08;21.85;;;;;;;-9.88;68.40;101618.44;4933879;29;20490;-68
2022/12/01 00:36:09;;;;;;;46.72;21.83;;;;;;;-9.77;68.29;101638.59;4933712;29;20058;-69
2022/12/01 00:38:35;;;;;;;51.75;22.23;;;;;;;-9.76;67.88;101630.03;4949906;29;20054;-69
2022/12/01 00:41:02;;;;;;;44.28;22.45;;;;;;;-9.78;68.21;101626.66;4934972;29;20215;-69
2022/12/01 00:43:27;;;;;;;49.88;22.55;;;;;;;-9.80;68.49;101630.16;4933913;29;20401;-69
2022/12/01 00:45:55;;;;;;;44.40;22.80;;;;;;;-9.87;69.47;101629.53;4935072;29;20043;-68
2022/12/01 00:48:21;;;;;;;51.80;21.83;;;;;;;-9.86;70.32;101624.34;4917750;29;20142;-70
2022/12/01 00:50:49;;;;;;;55.17;22.52;;;;;;;-9.85;69.81;101626.03;4933730;29;20062;-69
2022/12/01 00:53:14;;;;;;;51.42;23.63;;;;;;;-9.91;69.55;101628.81;4933370;29;20044;-69
2022/12/01 00:55:40;;;;;;;44.13;21.85;;;;;;;-9.92;69.92;101621.97;4933588;29;20536;-70
2022/12/01 00:58:06;;;;;;;45.22;22.10;;;;;;;-9.92;68.65;101619.41;4934611;29;20103;-68
2022/12/01 01:00:32;;;;;;;51.03;21.40;;;;;;;-9.92;68.48;101616.03;4933613;29;20084;-69
2022/12/01 01:02:58;;;;;;;46.90;21.27;;;;;;;-9.88;69.03;101622.72;4933289;29;20482;-70
2022/12/01 01:05:23;;;;;;;48.90;22.40;;;;;;;-9.83;68.88;101620.84;4934956;29;20047;-69
2022/12/01 01:07:49;;;;;;;52.05;22.60;;;;;;;-9.94;68.83;101608.38;4932984;29;20067;-69
2022/12/01 01:10:14;;;;;;;47.80;22.30;;;;;;;-9.91;69.67;101620.25;4934511;29;20449;-69
2022/12/01 01:12:40;;;;;;;62.75;24.98;;;;;;;-10.01;70.58;101609.47;4917334;29;20458;-69
2022/12/01 01:15:06;;;;;;;52.88;25.45;;;;;;;-9.97;70.46;101631.59;4934708;29;20106;-69
2022/12/01 01:17:32;;;;;;;54.80;23.58;;;;;;;-9.96;70.38;101632.41;4933135;29;20138;-70
2022/12/01 01:19:58;;;;;;;58.83;24.27;;;;;;;-9.94;70.60;101635.75;4934650;29;20127;-70
2022/12/01 01:22:24;;;;;;;54.33;24.75;;;;;;;-9.93;70.06;101629.75;4934325;29;20420;-69
2022/12/01 01:24:49;;;;;;;50.80;24.25;;;;;;;-9.88;70.00;101631.28;4933544;29;20118;-69
2022/12/01 01:27:15;;;;;;;51.33;23.42;;;;;;;-9.88;69.02;101630.41;4917175;29;20445;-68
2022/12/01 01:29:41;;;;;;;51.08;23.50;;;;;;;-9.92;69.59;101637.38;4934482;29;20500;-69
2022/12/01 01:32:07;;;;;;;55.70;23.85;;;;;;;-9.89;69.31;101627.00;4934197;29;20138;-69
2022/12/01 01:34:33;;;;;;;51.92;23.17;;;;;;;-9.89;68.24;101619.31;4934497;29;20083;-69
2022/12/01 01:36:58;;;;;;;53.88;23.02;;;;;;;-9.89;68.57;101627.00;4934087;29;20072;-70
2022/12/01 01:39:24;;;;;;;57.75;22.52;;;;;;;-9.93;68.40;101617.75;4934469;29;20075;-70
2022/12/01 01:41:49;;;;;;;48.38;20.75;;;;;;;-10.01;68.45;101604.34;4937532;29;20485;-69
2022/12/01 01:44:43;;;;;;;60.85;23.77;;;;;;;-10.00;68.84;101615.44;4923375;29;20505;-68
2022/12/01 01:47:09;;;;;;;57.83;24.00;;;;;;;-10.05;69.68;101615.59;4940344;29;20421;-69
2022/12/01 01:49:35;;;;;;;46.83;22.50;;;;;;;-10.00;69.24;101612.88;4923425;29;20178;-69
2022/12/01 01:52:03;;;;;;;49.40;21.92;;;;;;;-10.03;68.53;101605.28;4939444;29;20532;-69
2022/12/01 01:54:36;;;;;;;49.15;22.70;;;;;;;-10.05;68.95;101615.59;4923659;29;20126;-70
2022/12/01 01:57:04;;;;;;;64.03;24.17;;;;;;;-10.04;69.55;101614.69;4940593;29;20448;-70
2022/12/01 01:59:35;;;;;;;49.08;21.15;;;;;;;-10.02;68.48;101630.88;4923377;29;20044;-70
2022/12/01 02:02:08;;;;;;;42.75;20.80;;;;;;;-10.06;68.51;101616.47;4923224;29;20075;-70
2022/12/01 02:04:37;;;;;;;49.67;22.33;;;;;;;-10.01;67.99;101627.44;4939233;29;20047;-70
2022/12/01 02:07:03;;;;;;;42.72;19.30;;;;;;;-10.01;67.58;101630.00;4923184;29;20051;-70
2022/12/01 02:09:28;;;;;;;47.63;20.67;;;;;;;-10.03;67.93;101629.19;4939192;29;20111;-70
2022/12/01 02:11:57;;;;;;;46.42;20.10;;;;;;;-10.06;68.30;101622.47;4938899;29;20095;-70
2022/12/01 02:14:48;;;;;;;43.17;20.23;;;;;;;-10.00;68.58;101625.69;4939306;29;20059;-71
2022/12/01 02:17:40;;;;;;;49.05;20.98;;;;;;;-10.03;68.20;101625.78;4938396;29;20051;-71
2022/12/01 02:20:12;;;;;;;40.95;19.63;;;;;;;-10.04;67.48;101626.69;4897686;29;20055;-70
2022/12/01 02:22:53;;;;;;;41.88;19.70;;;;;;;-10.07;67.96;101627.63;4939024;29;20142;-70
2022/12/01 02:25:28;;;;;;;47.63;21.23;;;;;;;-10.07;67.92;101630.19;4939177;29;20160;-70
2022/12/01 02:28:13;;;;;;;45.92;20.75;;;;;;;-10.06;67.36;101629.28;4939277;29;20417;-71
2022/12/01 02:30:58;;;;;;;38.42;19.33;;;;;;;-10.18;68.22;101625.41;4923256;29;20051;-70
2022/12/01 02:33:33;;;;;;;48.10;21.25;;;;;;;-10.26;68.08;101619.72;4940430;29;20083;-71
2022/12/01 02:36:00;;;;;;;46.08;21.17;;;;;;;-10.23;67.90;101621.31;4938693;29;20051;-70
2022/12/01 02:38:52;;;;;;;46.00;19.00;;;;;;;-10.26;68.63;101626.56;4907079;29;20080;-70
2022/12/01 02:41:23;;;;;;;45.83;20.13;;;;;;;-10.31;67.94;101624.16;4924570;29;20086;-70
2022/12/01 02:43:58;;;;;;;53.67;21.80;;;;;;;-10.30;68.00;101624.09;4938585;29;20051;-70
2022/12/01 02:46:31;;;;;;;47.45;21.05;;;;;;;-10.32;68.08;101627.63;4938964;29;20098;-71
2022/12/01 02:49:02;;;;;;;46.33;21.05;;;;;;;-10.38;68.88;101623.53;4922800;29;20131;-69
2022/12/01 02:51:30;;;;;;;44.10;20.75;;;;;;;-10.36;68.67;101620.91;4922833;29;20048;-70
2022/12/01 02:53:58;;;;;;;49.28;21.90;;;;;;;-10.33;68.49;101613.13;4918691;29;20090;-70
2022/12/01 02:56:23;;;;;;;46.05;21.20;;;;;;;-10.45;69.17;101610.94;4936713;29;20132;-71
2022/12/01 02:58:49;;;;;;;40.33;20.15;;;;;;;-10.49;69.38;101614.50;4919671;29;20138;-70
2022/12/01 03:01:18;;;;;;;37.55;19.05;;;;;;;-10.58;69.26;101619.03;4919738;29;20525;-70
2022/12/01 03:04:12;;;;;;;44.35;21.55;;;;;;;-10.54;69.48;101614.63;4936901;29;20402;-70
2022/12/01 03:06:53;;;;;;;45.88;20.63;;;;;;;-10.60;69.21;101604.56;4935522;29;20056;-71
2022/12/01 03:09:33;;;;;;;51.10;20.42;;;;;;;-10.61;69.36;101605.47;4935720;29;20087;-70
2022/12/01 03:12:23;;;;;;;41.80;20.90;;;;;;;-10.62;69.22;101612.28;4919953;29;20303;-70
2022/12/01 03:15:10;;;;;;;48.08;22.75;;;;;;;-10.60;68.59;101615.66;4935525;29;20043;-70
2022/12/01 03:18:05;;;;;;;46.53;21.05;;;;;;;-10.57;68.83;101613.00;4936538;29;20064;-69
2022/12/01 03:20:43;;;;;;;53.17;22.10;;;;;;;-10.55;68.56;101612.97;4935585;29;20485;-70
2022/12/01 03:23:19;;;;;;;46.28;21.48;;;;;;;-10.51;68.61;101606.84;4919782;29;20083;-71
2022/12/01 03:25:48;;;;;;;43.60;19.83;;;;;;;-10.47;68.55;101613.56;4920130;29;20047;-71
2022/12/01 03:28:17;;;;;;;45.03;22.90;;;;;;;-10.52;69.26;101605.19;4921728;29;20543;-71
2022/12/01 03:30:44;;;;;;;51.97;23.48;;;;;;;-10.50;69.60;101605.94;4941811;29;20047;-69
2022/12/01 03:33:17;;;;;;;50.63;20.98;;;;;;;-10.54;68.93;101601.81;4941409;29;20059;-70
2022/12/01 03:36:04;;;;;;;68.95;24.58;;;;;;;-10.59;69.46;101596.84;4924542;29;20040;-69
2022/12/01 03:38:30;;;;;;;59.47;24.80;;;;;;;-10.57;69.17;101597.63;4921376;29;20130;-71
2022/12/01 03:40:59;;;;;;;46.33;23.50;;;;;;;-10.60;69.26;101599.44;4935797;29;20416;-70
2022/12/01 03:43:32;;;;;;;53.47;25.48;;;;;;;-10.58;68.97;101603.66;4903474;29;20489;-71
2022/12/01 03:46:13;;;;;;;62.53;26.15;;;;;;;-10.63;68.57;101602.94;4934838;29;20046;-70
2022/12/01 03:48:39;;;;;;;48.90;23.55;;;;;;;-10.59;68.75;101611.38;4934740;29;20179;-70
2022/12/01 03:51:12;;;;;;;52.83;23.80;;;;;;;-10.56;68.18;101603.56;4934646;29;20043;-70
2022/12/01 03:53:46;;;;;;;50.17;22.88;;;;;;;-10.56;68.25;101601.88;4934675;29;20040;-71
2022/12/01 03:56:13;;;;;;;54.03;24.20;;;;;;;-10.54;67.37;101601.81;4934444;29;20154;-71
2022/12/01 03:58:42;;;;;;;55.63;24.45;;;;;;;-10.55;67.02;101607.84;4935700;29;20055;-70
2022/12/01 04:01:08;;;;;;;61.45;24.35;;;;;;;-10.54;66.52;101599.25;4935917;29;20084;-70
2022/12/01 04:03:34;;;;;;;47.03;23.00;;;;;;;-10.55;66.58;101606.09;4935201;29;20077;-70
2022/12/01 04:06:00;;;;;;;49.30;22.75;;;;;;;-10.58;67.14;101603.66;4934311;29;20434;-71
2022/12/01 04:08:26;;;;;;;49.75;22.02;;;;;;;-10.70;67.27;101593.78;4933765;29;20058;-70
2022/12/01 04:10:52;;;;;;;51.05;22.52;;;;;;;-10.72;68.19;101600.66;4935458;29;20051;-69
2022/12/01 04:13:24;;;;;;;55.90;21.65;;;;;;;-10.75;68.41;101604.16;4935720;29;20568;-70
2022/12/01 04:15:51;;;;;;;47.78;23.52;;;;;;;-10.78;69.19;101603.41;4934526;29;20113;-70
2022/12/01 04:18:17;;;;;;;52.70;23.38;;;;;;;-10.79;68.77;101605.16;4934309;29;20441;-71
2022/12/01 04:20:51;;;;;;;48.92;22.48;;;;;;;-10.78;68.80;101614.50;4934221;29;20056;-68
2022/12/01 04:24:02;;;;;;;49.25;22.73;;;;;;;-10.75;69.09;101598.19;4935469;29;20051;-69
2022/12/01 04:26:04;;;;;;;49.80;23.17;;;;;;;-10.84;68.55;101591.63;4925133;29;20063;-70
2022/12/01 04:28:29;;;;;;;68.28;27.30;;;;;;;-10.78;68.53;101606.81;4934005;29;20495;-70
2022/12/01 04:30:55;;;;;;;52.03;22.70;;;;;;;-10.77;68.74;101599.97;4935192;29;20055;-70
2022/12/01 04:33:21;;;;;;;53.47;24.02;;;;;;;-10.77;68.02;101605.09;4949913;29;20044;-71
2022/12/01 04:35:58;;;;;;;57.45;25.65;;;;;;;-10.71;68.30;101609.19;4933693;29;20059;-70
2022/12/01 04:38:24;;;;;;;58.63;24.63;;;;;;;-10.70;67.94;101611.72;4933945;29;20051;-70
2022/12/01 04:40:50;;;;;;;59.60;24.85;;;;;;;-10.74;67.75;101607.56;4918367;29;20059;-69
2022/12/01 04:43:16;;;;;;;48.65;23.67;;;;;;;-10.71;67.83;101604.06;4934357;29;20410;-71
2022/12/01 04:45:41;;;;;;;54.53;22.73;;;;;;;-10.85;67.88;101600.22;4918611;29;20054;-70
2022/12/01 04:48:07;;;;;;;50.97;23.55;;;;;;;-10.89;68.60;101603.72;4933757;29;20044;-71
2022/12/01 04:50:34;;;;;;;56.00;23.48;;;;;;;-10.88;68.36;101599.44;4933643;29;20394;-70
2022/12/01 04:53:00;;;;;;;54.60;25.90;;;;;;;-10.86;68.57;101601.06;4933511;29;20079;-70
2022/12/01 04:55:25;;;;;;;55.15;23.60;;;;;;;-10.84;67.99;101603.59;4935044;29;20047;-71
2022/12/01 04:57:51;;;;;;;55.03;24.42;;;;;;;-10.84;68.32;101608.72;4934751;29;20055;-71
2022/12/01 05:00:17;;;;;;;54.85;24.13;;;;;;;-10.75;67.80;101611.00;4934815;29;20048;-69
2022/12/01 05:02:43;;;;;;;54.63;24.85;;;;;;;-10.80;66.63;101607.75;4933469;29;20048;-70
2022/12/01 05:05:13;;;;;;;56.80;24.95;;;;;;;-10.71;65.80;101616.88;4933439;29;20067;-68
2022/12/01 05:07:39;;;;;;;53.33;25.00;;;;;;;-10.71;65.68;101622.84;4933349;29;20070;-71
2022/12/01 05:10:06;;;;;;;59.13;27.05;;;;;;;-10.65;65.00;101627.78;4934904;29;20040;-69
2022/12/01 05:12:31;;;;;;;50.92;24.42;;;;;;;-10.65;64.58;101620.06;4933335;29;20138;-69
2022/12/01 05:14:57;;;;;;;55.60;25.45;;;;;;;-10.66;65.42;101625.28;4948930;29;20134;-71
2022/12/01 05:17:23;;;;;;;65.28;29.33;;;;;;;-10.67;66.02;101626.16;4933873;29;20059;-69
2022/12/01 05:22:32;;;;;;;55.05;24.90;;;;;;;-10.57;66.89;101630.94;4932971;29;20119;-67
2022/12/01 05:24:58;;;;;;;52.90;24.17;;;;;;;-10.66;67.03;101617.59;4933345;29;20485;-69
2022/12/01 05:27:24;;;;;;;56.95;24.73;;;;;;;-10.69;67.41;101617.69;4932351;29;20055;-69
2022/12/01 05:29:49;;;;;;;65.20;27.88;;;;;;;-10.68;67.62;101625.31;4932791;29;20043;-68
2022/12/01 05:32:15;;;;;;;66.28;26.20;;;;;;;-10.61;67.57;101631.09;4932955;29;20099;-69
2022/12/01 05:34:41;;;;;;;58.38;25.38;;;;;;;-10.56;65.95;101630.06;4932603;29;20044;-68
2022/12/01 05:37:06;;;;;;;52.65;24.90;;;;;;;-10.53;66.21;101639.38;4915686;29;20055;-67
2022/12/01 05:39:32;;;;;;;57.45;24.08;;;;;;;-10.54;65.76;101632.56;4931202;29;20046;-67
2022/12/01 05:41:58;;;;;;;66.85;26.08;;;;;;;-10.58;65.95;101631.84;4930825;29;20054;-67
2022/12/01 05:44:23;;;;;;;49.85;24.52;;;;;;;-10.55;66.15;101636.03;4916334;29;20075;-67
2022/12/01 05:46:49;;;;;;;52.08;23.90;;;;;;;-10.54;66.19;101635.97;4932134;29;20101;-68
2022/12/01 05:49:15;;;;;;;55.90;24.13;;;;;;;-10.63;65.97;101633.69;4931873;29;20054;-68
2022/12/01 05:51:42;;;;;;;50.30;23.38;;;;;;;-10.58;65.67;101638.69;4915403;29;20391;-69
2022/12/01 05:54:08;;;;;;;54.65;24.10;;;;;;;-10.57;64.92;101651.44;4915651;29;20126;-68
2022/12/01 05:56:34;;;;;;;51.20;23.77;;;;;;;-10.60;65.34;101648.16;4932845;29;20511;-68
2022/12/01 05:58:59;;;;;;;53.67;24.52;;;;;;;-10.59;65.81;101649.81;4930709;29;20079;-67
2022/12/01 06:01:25;;;;;;;51.67;23.20;;;;;;;-10.65;65.49;101650.00;4931204;29;20525;-68
2022/12/01 06:03:52;;;;;;;59.33;25.90;;;;;;;-10.60;65.62;101659.22;4930267;29;20501;-67
2022/12/01 06:06:18;;;;;;;61.70;24.52;;;;;;;-10.59;65.10;101652.38;4930522;29;20071;-67
2022/12/01 06:08:43;;;;;;;63.00;23.02;;;;;;;-10.55;65.61;101659.09;4931541;29;20094;-70
2022/12/01 06:11:09;;;;;;;54.83;24.52;;;;;;;-10.60;65.19;101661.78;4930060;29;20055;-70
2022/12/01 06:13:35;;;;;;;48.40;22.50;;;;;;;-10.62;65.08;101642.22;4898949;29;20044;-69
2022/12/01 06:16:03;;;;;;;58.28;24.50;;;;;;;-10.55;66.18;101654.81;4930999;29;20078;-70
2022/12/01 06:18:32;;;;;;;61.75;25.27;;;;;;;-10.37;66.87;101662.81;4931538;29;20063;-69
2022/12/01 06:20:57;;;;;;;54.63;25.80;;;;;;;-10.18;66.65;101666.44;4947086;29;20062;-70
2022/12/01 06:23:23;;;;;;;57.80;25.08;;;;;;;-10.06;66.33;101671.22;4932908;29;20039;-69
2022/12/01 06:25:49;;;;;;;58.70;25.77;;;;;;;-9.91;65.37;101667.31;4948584;29;20044;-68
2022/12/01 06:28:15;;;;;;;59.92;25.77;;;;;;;-9.83;64.62;101675.56;4918196;29;20067;-70
2022/12/01 06:30:41;;;;;;;53.90;25.30;;;;;;;-9.71;64.85;101678.63;4936474;29;20070;-68
2022/12/01 06:33:07;;;;;;;58.10;27.33;;;;;;;-9.74;63.88;101663.31;4935927;29;20497;-67
2022/12/01 06:35:33;;;;;;;60.42;26.13;;;;;;;-9.66;65.15;101669.03;4903773;29;20043;-69
2022/12/01 06:37:59;;;;;;;62.55;26.80;;;;;;;-9.61;64.24;101672.31;4936443;29;20063;-68
2022/12/01 06:40:26;;;;;;;56.85;26.98;;;;;;;-9.57;64.96;101673.84;4919554;29;20513;-67
2022/12/01 06:42:52;;;;;;;57.05;26.30;;;;;;;-9.50;64.38;101669.34;4936781;29;20146;-69
2022/12/01 06:45:18;;;;;;;56.45;26.40;;;;;;;-9.48;63.89;101665.00;4936069;29;20134;-69
2022/12/01 06:47:46;;;;;;;59.72;27.52;;;;;;;-9.46;64.32;101668.38;4919354;29;20047;-69
2022/12/01 06:50:12;;;;;;;61.40;27.17;;;;;;;-9.43;64.30;101665.69;4934079;29;20517;-68
2022/12/01 06:52:38;;;;;;;65.68;29.42;;;;;;;-9.46;63.51;101658.09;4933961;29;20075;-70
2022/12/01 06:55:05;;;;;;;64.68;29.55;;;;;;;-9.40;63.28;101658.72;4918104;29;20521;-65
2022/12/01 06:57:31;;;;;;;60.20;29.60;;;;;;;-9.31;63.89;101661.84;4936411;29;20463;-66
2022/12/01 06:59:56;;;;;;;66.18;29.95;;;;;;;-9.20;63.07;101668.28;4937367;29;20499;-68
2022/12/01 07:02:22;;;;;;;72.70;33.55;;;;;;;-9.13;62.37;101662.94;4917478;29;20134;-69
2022/12/01 07:04:48;;;;;;;80.18;34.20;;;;;;;-9.38;61.65;101617.59;4936571;29;20040;-69
2022/12/01 07:07:13;;;;;;;70.28;35.17;;;;;;;-9.17;62.00;101652.75;4933610;29;20138;-69
2022/12/01 07:09:40;;;;;;;67.07;31.52;;;;;;;-9.15;62.55;101661.25;4937243;29;20043;-68
2022/12/01 07:12:06;;;;;;;68.53;30.25;;;;;;;-9.18;63.88;101661.34;4938019;29;20059;-67
2022/12/01 07:14:31;;;;;;;63.38;29.00;;;;;;;-9.16;64.65;101653.59;4937808;29;20097;-69
2022/12/01 07:16:57;;;;;;;66.38;29.20;;;;;;;-9.05;63.92;101650.66;4936744;29;20054;-69
2022/12/01 07:19:23;;;;;;;62.33;29.08;;;;;;;-8.95;63.15;101649.41;4920013;29;20098;-70
2022/12/01 07:21:49;;;;;;;63.42;29.45;;;;;;;-8.88;63.62;101656.00;4920383;29;20051;-67
2022/12/01 07:24:15;;;;;;;68.88;31.00;;;;;;;-8.85;62.42;101655.91;4954140;29;20050;-66
2022/12/01 07:26:41;;;;;;;62.60;29.90;;;;;;;-8.84;62.75;101660.13;4936790;29;20043;-69
2022/12/01 07:29:09;;;;;;;73.78;33.20;;;;;;;-8.81;61.59;101657.44;4954815;29;20050;-69
2022/12/01 07:31:37;;;;;;;68.68;33.60;;;;;;;-8.84;62.50;101646.44;4889843;29;20066;-70
2022/12/01 07:34:03;;;;;;;85.22;34.78;;;;;;;-8.80;63.11;101663.41;4921789;29;20137;-68
2022/12/01 07:36:29;;;;;;;74.03;35.08;;;;;;;-8.80;63.19;101660.84;4954622;29;20051;-70
2022/12/01 07:38:56;;;;;;;80.53;37.00;;;;;;;-8.83;63.55;101660.97;4937326;29;20194;-70
2022/12/01 07:41:22;;;;;;;87.78;37.08;;;;;;;-8.81;63.98;101662.59;4937201;29;20416;-73
2022/12/01 07:43:49;;;;;;;84.45;36.33;;;;;;;-8.75;64.33;101664.91;4953539;29;20183;-73
2022/12/01 07:46:25;;;;;;;80.70;35.28;;;;;;;-8.72;62.99;101658.84;4954410;29;20520;-69
2022/12/01 07:49:03;;;;;;;105.70;45.35;;;;;;;-8.73;64.09;101655.44;4937286;29;20043;-71
2022/12/01 07:51:29;;;;;;;86.40;38.58;;;;;;;-8.78;63.78;101661.63;4921104;29;20500;-72
2022/12/01 07:53:54;;;;;;;82.80;38.40;;;;;;;-8.84;64.53;101647.28;4952419;29;20046;-73
2022/12/01 07:56:21;;;;;;;82.00;38.92;;;;;;;-8.71;64.10;101663.91;4952542;29;20058;-71
2022/12/01 07:58:47;;;;;;;92.75;38.10;;;;;;;-8.62;65.15;101662.72;4935328;29;20097;-73
2022/12/01 08:01:19;;;;;;;72.78;36.42;;;;;;;-8.54;65.37;101662.44;4902950;29;20082;-68
2022/12/01 08:03:47;;;;;;;88.30;36.72;;;;;;;-8.47;64.08;101662.16;4921345;29;20039;-70
2022/12/01 08:06:13;;;;;;;87.00;37.88;;;;;;;-8.42;65.61;101664.53;4953347;29;20077;-70
2022/12/01 08:08:40;;;;;;;93.18;37.75;;;;;;;-8.37;64.68;101666.91;4936109;29;20074;-69
2022/12/01 08:11:14;;;;;;;96.78;42.30;;;;;;;-8.42;64.97;101658.56;4935113;29;20519;-67
2022/12/01 08:13:41;;;;;;;85.90;39.75;;;;;;;-8.42;64.94;101664.53;4933085;29;20507;-68
2022/12/01 08:16:09;;;;;;;93.20;42.40;;;;;;;-8.37;66.29;101672.88;4933540;29;20057;-73
2022/12/01 08:18:35;;;;;;;96.25;43.60;;;;;;;-8.35;65.58;101647.94;4931292;29;20039;-75
2022/12/01 08:21:01;;;;;;;99.50;42.35;;;;;;;-8.22;66.02;101656.00;4932039;29;20051;-69
2022/12/01 08:23:28;;;;;;;108.57;44.03;;;;;;;-8.14;66.29;101658.28;4901128;29;20039;-66
2022/12/01 08:25:54;;;;;;;93.63;43.72;;;;;;;-8.07;66.04;101662.25;4932569;29;20058;-66
2022/12/01 08:28:20;;;;;;;101.82;41.65;;;;;;;-7.99;65.95;101657.66;4952892;29;20066;-65
2022/12/01 08:30:46;;;;;;;86.40;41.10;;;;;;;-7.85;65.10;101670.81;4935546;29;20066;-70
2022/12/01 08:33:12;;;;;;;97.72;40.03;;;;;;;-7.76;64.94;101659.28;4951270;29;20461;-69
2022/12/01 08:35:38;;;;;;;86.10;41.55;;;;;;;-7.65;65.08;101663.97;4934440;29;20039;-67
2022/12/01 08:38:04;;;;;;;89.85;40.83;;;;;;;-7.61;65.70;101668.94;4919642;29;20039;-69
2022/12/01 08:40:30;;;;;;;85.93;42.00;;;;;;;-7.51;65.12;101668.53;4934557;29;20045;-68
2022/12/01 08:42:57;;;;;;;77.15;38.95;;;;;;;-7.45;65.23;101665.69;4903765;29;20539;-68
2022/12/01 08:45:23;;;;;;;88.80;39.08;;;;;;;-7.44;64.34;101667.38;4933139;29;20078;-68
2022/12/01 08:48:03;;;;;;;99.00;42.28;;;;;;;-7.40;65.21;101662.03;4933560;29;20043;-69
2022/12/01 08:54:35;;;;;;;81.70;36.55;;;;;;;-7.36;64.82;101645.53;6057130;23;20022;-69
2022/12/01 08:57:12;;;;;;;87.82;37.97;;;;;;;-7.18;63.98;101661.91;4919579;29;20163;-69
2022/12/01 08:59:39;;;;;;;92.25;38.83;;;;;;;-7.15;64.00;101663.53;4936261;29;20038;-69
2022/12/01 09:02:14;;;;;;;80.10;39.05;;;;;;;-7.23;65.40;101655.31;4905163;29;20117;-70
2022/12/01 09:04:49;;;;;;;89.65;40.15;;;;;;;-7.22;66.17;101662.13;4906097;29;20050;-71
2022/12/01 09:07:31;;;;;;;83.93;39.97;;;;;;;-7.24;65.27;101671.66;4899097;29;20042;-69
2022/12/01 09:10:02;;;;;;;90.40;41.42;;;;;;;-7.27;66.61;101664.91;4915656;29;20174;-70
2022/12/01 09:12:29;;;;;;;93.38;42.63;;;;;;;-7.25;66.35;101652.78;4936442;29;20046;-68
2022/12/01 09:15:02;;;;;;;87.53;41.20;;;;;;;-7.24;66.17;101651.88;4920320;29;20051;-68
2022/12/01 09:18:06;;;;;;;100.32;42.85;;;;;;;-7.16;66.13;101631.75;4919441;29;20043;-69
2022/12/01 09:20:34;;;;;;;93.72;39.97;;;;;;;-6.97;65.32;101643.81;4920375;29;20047;-67
2022/12/01 09:22:59;;;;;;;96.38;41.85;;;;;;;-7.06;65.59;101641.66;4953359;29;20049;-67
2022/12/01 09:25:26;;;;;;;91.15;43.10;;;;;;;-6.99;65.82;101643.06;4935238;29;20039;-66
2022/12/01 09:27:51;;;;;;;82.22;41.20;;;;;;;-6.92;66.80;101639.31;4952979;29;20050;-68
2022/12/01 09:30:17;;;;;;;93.00;43.38;;;;;;;-6.92;66.48;101639.31;4935973;29;20731;-67
2022/12/01 09:32:43;;;;;;;93.70;42.38;;;;;;;-6.73;66.04;101636.72;4935802;29;20055;-65
2022/12/01 09:35:08;;;;;;;90.78;43.15;;;;;;;-6.72;66.01;101631.50;4953168;29;20074;-65
2022/12/01 09:37:34;;;;;;;88.28;40.88;;;;;;;-6.79;65.94;101630.13;4935792;29;20443;-65
2022/12/01 09:40:00;;;;;;;91.82;43.17;;;;;;;-6.76;65.80;101639.47;4952917;29;20617;-68
2022/12/01 09:42:26;;;;;;;93.13;42.33;;;;;;;-6.86;66.28;101642.44;4935748;29;20043;-70
2022/12/01 09:44:55;;;;;;;102.07;42.70;;;;;;;-6.64;66.65;101641.47;4952807;29;20079;-71
2022/12/01 09:47:34;;;;;;;95.65;41.83;;;;;;;-6.51;66.28;101637.38;4919910;29;20599;-73
2022/12/01 09:50:03;;;;;;;95.40;43.03;;;;;;;-6.35;65.67;101629.78;4903991;29;20405;-73
2022/12/01 09:52:40;;;;;;;91.68;43.80;;;;;;;-6.15;65.30;101635.69;4936510;29;20058;-74
2022/12/01 09:55:11;;;;;;;100.18;43.78;;;;;;;-6.18;64.93;101631.50;4928712;29;20064;-74
2022/12/01 09:57:41;;;;;;;94.18;45.42;;;;;;;-6.13;65.67;101642.47;4913978;29;20048;-73
2022/12/01 10:00:23;;;;;;;108.55;46.58;;;;;;;-6.01;64.92;101641.03;4914010;29;20107;-73
2022/12/01 10:03:08;;;;;;;93.45;42.85;;;;;;;-5.84;65.03;101643.59;4900682;29;20043;-74
2022/12/01 10:05:46;;;;;;;95.20;45.85;;;;;;;-5.71;64.51;101642.06;4917658;29;20067;-73
2022/12/01 10:08:16;;;;;;;99.85;45.55;;;;;;;-5.62;64.18;101640.75;4902040;29;20540;-72
2022/12/01 10:10:46;;;;;;;106.20;46.38;;;;;;;-5.64;64.29;101642.59;4917147;29;20055;-71
2022/12/01 10:13:25;;;;;;;96.88;44.10;;;;;;;-5.68;64.60;101635.88;4918212;29;20040;-73
2022/12/01 10:15:53;;;;;;;95.43;44.03;;;;;;;-5.68;64.44;101633.31;4901613;29;20143;-72
2022/12/01 10:18:36;;;;;;;95.25;45.22;;;;;;;-5.82;64.84;101628.03;4901691;29;20040;-73
2022/12/01 10:21:06;;;;;;;101.38;44.38;;;;;;;-5.69;64.74;101638.56;4919006;29;20060;-73
2022/12/01 10:23:35;;;;;;;94.63;44.63;;;;;;;-5.60;65.10;101633.75;4917541;29;20148;-72
2022/12/01 10:26:14;;;;;;;102.35;44.95;;;;;;;-5.48;64.75;101638.28;4917507;29;20060;-72
2022/12/01 10:29:20;;;;;;;99.00;45.33;;;;;;;-5.39;64.75;101637.00;4916271;29;20036;-73
2022/12/01 10:32:19;;;;;;;99.10;46.22;;;;;;;-5.27;64.67;101640.69;4901343;29;20060;-73
2022/12/01 10:34:50;;;;;;;94.88;45.38;;;;;;;-5.24;64.62;101637.94;4886365;29;20079;-73
2022/12/01 10:37:19;;;;;;;97.95;43.95;;;;;;;-5.21;64.52;101632.59;4916464;29;20418;-75
2022/12/01 10:39:48;;;;;;;100.57;46.83;;;;;;;-5.16;63.87;101627.22;4900969;29;20048;-74
2022/12/01 10:42:16;;;;;;;95.57;45.97;;;;;;;-5.10;64.52;101629.47;4916595;29;20291;-73
2022/12/01 10:44:43;;;;;;;102.68;48.00;;;;;;;-5.19;64.04;101628.19;4916928;29;20044;-75
2022/12/01 10:47:18;;;;;;;104.20;46.67;;;;;;;-5.45;64.49;101592.53;4885459;29;20134;-73
2022/12/01 10:49:44;;;;;;;100.72;47.88;;;;;;;-5.26;64.53;101626.88;4918063;29;20056;-72
2022/12/01 10:52:35;;;;;;;109.75;48.55;;;;;;;-5.29;65.31;101634.78;4920577;29;20048;-74
2022/12/01 10:55:04;;;;;;;105.00;48.70;;;;;;;-5.17;64.89;101625.56;4906602;29;20086;-74
2022/12/01 10:57:31;;;;;;;100.28;46.17;;;;;;;-5.12;64.51;101621.78;4905811;29;20406;-74
2022/12/01 10:59:57;;;;;;;107.63;48.75;;;;;;;-5.08;64.64;101619.88;4919401;29;20059;-73
2022/12/01 11:02:25;;;;;;;106.32;49.75;;;;;;;-5.06;64.83;101618.88;4901573;29;20398;-74
2022/12/01 11:04:58;;;;;;;112.88;49.78;;;;;;;-5.00;65.03;101620.28;4916686;29;20040;-74
2022/12/01 11:07:40;;;;;;;106.22;50.10;;;;;;;-5.16;65.55;101620.28;4917868;29;20044;-74
2022/12/01 11:10:13;;;;;;;98.30;50.10;;;;;;;-5.12;65.54;101616.59;4916646;29;20099;-75
2022/12/01 11:12:40;;;;;;;112.20;51.78;;;;;;;-5.15;65.84;101619.34;4902781;29;20107;-75
2022/12/01 11:15:08;;;;;;;99.45;47.15;;;;;;;-5.08;65.96;101617.31;4919573;29;20051;-74
2022/12/01 11:17:40;;;;;;;107.38;51.45;;;;;;;-5.13;65.64;101614.13;4919424;29;20043;-74
2022/12/01 11:20:26;;;;;;;103.20;48.30;;;;;;;-5.17;66.63;101618.63;4900456;29;20048;-73
2022/12/01 11:23:25;;;;;;;106.32;49.08;;;;;;;-5.27;66.92;101615.66;4916040;29;20076;-74
2022/12/01 11:26:24;;;;;;;101.97;44.90;;;;;;;-5.32;67.08;101614.25;4911758;29;20139;-73